51VA weather

Skyview Airport
Manassas, Virginia, United States

Public forecast

Using degrees Fahrenheit for public forecast. Weather courtesy of forecast.io.

Closest aviation weather report (METAR) to Skyview Airport

Closest report is Manassas Regional Airport/Harry P. Davis Field, 5.6 nm (10.3 km) E. Retrieved 2020/06/05 03:07 UTC (14 minutes ago):

KHEF 050307Z 06005KT 10SM TS OVC050 22/21 A2989 RMK AO2 LTG DSNT W-NE TSB01 PNO

Closest aviation forecast (TAF) to Skyview Airport

Closest forecast is Washington Dulles International Airport, 16.0 nm (29.7 km) NNE. Retrieved 2020-06-05 00:36 UTC (3 hours ago):

TAF KIAD 042335Z 0500/0606 22008KT P6SM VCTS SCT060CB BKN130 FM050500 20005KT P6SM VCSH SCT050 BKN100 FM050800 VRB03KT P6SM SCT050 BKN130 FM051600 20008G16KT P6SM SCT050 BKN130 FM051900 21008G16KT P6SM VCTS SCT050CB BKN130 FM052300 VRB03KT P6SM SCT050 BKN130